Time;durP1;ratioP1;P1;durP2;ratioP2;P2;SDS_P1;SDS_P2;PMS_P1;PMS_P2;Temp;Humidity;BMP_temperature;BMP_pressure;BME280_temperature;BME280_humidity;BME280_pressure;Samples;Min_cycle;Max_cycle;Signal;HPM_P1;HPM_P2
2023/05/04 00:00:38;;;;;;;19.33;7.55;;;;;;;13.55;85.94;101335.81;5096304;28;20047;-88
2023/05/04 00:03:04;;;;;;;13.60;7.68;;;;;;;13.29;86.08;101293.88;5094973;28;20088;-92
2023/05/04 00:05:29;;;;;;;16.15;8.10;;;;;;;13.39;86.26;101292.97;5089390;28;20038;-89
2023/05/04 00:07:55;;;;;;;15.93;7.55;;;;;;;13.31;87.01;101287.34;5087066;28;20040;-89
2023/05/04 00:10:20;;;;;;;14.70;7.13;;;;;;;13.36;87.60;101268.06;5083444;28;20093;-87
2023/05/04 00:12:46;;;;;;;21.55;9.80;;;;;;;13.32;87.67;101263.91;5081360;28;20017;-87
2023/05/04 00:15:12;;;;;;;17.30;8.55;;;;;;;13.30;88.40;101291.03;5073948;28;20020;-88
2023/05/04 00:17:38;;;;;;;18.92;8.68;;;;;;;13.15;89.26;101269.84;5072563;28;20033;-88
2023/05/04 00:20:04;;;;;;;17.35;8.05;;;;;;;13.21;88.63;101274.75;5073121;28;20075;-88
2023/05/04 00:22:30;;;;;;;17.60;8.85;;;;;;;13.22;89.28;101317.81;5073230;28;20032;-89
2023/05/04 00:24:55;;;;;;;18.92;8.20;;;;;;;13.18;89.71;101315.50;5071976;28;20524;-87
2023/05/04 00:27:21;;;;;;;15.68;8.15;;;;;;;13.18;89.39;101277.69;5072758;28;20017;-87
2023/05/04 00:29:46;;;;;;;18.55;8.48;;;;;;;13.24;88.15;101277.19;5073138;28;20025;-88
2023/05/04 00:32:12;;;;;;;10.85;6.97;;;;;;;13.20;87.69;101273.88;5072435;28;20380;-87
2023/05/04 00:34:37;;;;;;;17.20;8.07;;;;;;;13.33;86.94;101304.28;5074068;28;20038;-86
2023/05/04 00:37:03;;;;;;;13.93;7.55;;;;;;;13.25;87.42;101278.88;5073588;28;20427;-86
2023/05/04 00:39:28;;;;;;;23.15;8.73;;;;;;;13.27;88.62;101288.59;5076961;28;20075;-86
2023/05/04 00:41:54;;;;;;;20.83;8.63;;;;;;;13.24;88.38;101264.53;5071775;28;20562;-86
2023/05/04 00:44:22;;;;;;;23.73;8.10;;;;;;;13.24;88.14;101271.78;5071190;28;20036;-89
2023/05/04 00:46:47;;;;;;;16.75;7.57;;;;;;;13.07;88.63;101249.69;5071794;28;20025;-87
2023/05/04 00:49:13;;;;;;;18.00;8.15;;;;;;;13.13;89.36;101264.56;5072900;28;20025;-87
2023/05/04 00:51:39;;;;;;;19.95;8.35;;;;;;;12.97;89.67;101232.50;5075083;28;20526;-86
2023/05/04 00:54:05;;;;;;;21.27;7.82;;;;;;;13.03;89.30;101234.72;5075633;28;20033;-87
2023/05/04 00:56:32;;;;;;;16.88;8.82;;;;;;;13.23;89.62;101252.03;5073939;28;20505;-87
2023/05/04 00:58:58;;;;;;;19.08;8.43;;;;;;;13.23;89.40;101240.34;5094103;28;20036;-89
2023/05/04 01:01:24;;;;;;;16.98;7.57;;;;;;;13.13;88.81;101218.63;5094095;28;20036;-89
2023/05/04 01:03:51;;;;;;;17.42;7.93;;;;;;;13.14;88.51;101231.16;5076175;28;20028;-86
2023/05/04 01:06:54;;;;;;;16.10;8.18;;;;;;;13.30;88.69;101249.69;5071854;28;20082;-87
2023/05/04 01:10:00;;;;;;;16.80;8.80;;;;;;;13.29;88.84;101247.94;5072547;28;20037;-89
2023/05/04 01:13:12;;;;;;;17.95;8.18;;;;;;;13.27;88.50;101239.97;5072736;28;20029;-87
2023/05/04 01:15:38;;;;;;;20.45;8.30;;;;;;;13.20;88.58;101227.97;5076630;28;20041;-86
2023/05/04 01:18:04;;;;;;;18.80;7.57;;;;;;;13.26;88.33;101235.56;5046605;28;20106;-86
2023/05/04 01:20:30;;;;;;;21.20;8.77;;;;;;;13.30;88.65;101218.09;5058028;28;20048;-87
2023/05/04 01:22:55;;;;;;;19.58;7.68;;;;;;;13.45;87.97;101240.28;5059120;28;20515;-86
2023/05/04 01:25:26;;;;;;;15.25;7.80;;;;;;;13.40;87.76;101237.97;5071796;28;20036;-86
2023/05/04 01:28:07;;;;;;;18.10;9.48;;;;;;;13.36;88.58;101228.38;5042281;28;20045;-85
2023/05/04 01:30:40;;;;;;;19.13;8.63;;;;;;;13.48;88.59;101249.00;5068112;28;20095;-87
2023/05/04 01:33:06;;;;;;;21.70;8.82;;;;;;;13.60;88.68;101241.72;5056887;28;20041;-87
2023/05/04 01:35:32;;;;;;;19.20;8.63;;;;;;;13.51;88.58;101240.63;5038993;28;20100;-88
2023/05/04 01:37:58;;;;;;;21.60;8.65;;;;;;;13.62;88.67;101247.81;5033975;28;20144;-87
2023/05/04 01:40:24;;;;;;;20.30;8.85;;;;;;;13.60;88.37;101239.00;5061762;28;20037;-90
2023/05/04 01:42:49;;;;;;;18.17;9.25;;;;;;;13.74;87.56;101252.19;5070652;28;20029;-86
2023/05/04 01:45:15;;;;;;;20.50;8.73;;;;;;;13.80;87.07;101248.13;5062598;28;20160;-88
2023/05/04 01:47:40;;;;;;;14.93;8.38;;;;;;;13.87;86.33;101254.72;5050822;28;20051;-88
2023/05/04 01:50:06;;;;;;;22.02;9.80;;;;;;;13.91;85.80;101231.84;5071100;28;20075;-87
2023/05/04 01:52:32;;;;;;;16.00;8.20;;;;;;;14.01;85.73;101235.47;5084718;28;20032;-90
2023/05/04 01:54:57;;;;;;;17.50;8.27;;;;;;;14.08;84.82;101228.53;5090387;28;20054;-87
2023/05/04 01:57:23;;;;;;;17.85;8.93;;;;;;;14.02;84.28;101211.00;5088020;28;20088;-89
2023/05/04 01:59:48;;;;;;;17.63;8.13;;;;;;;14.08;84.62;101212.31;5086940;28;20123;-89
2023/05/04 02:02:14;;;;;;;18.35;8.07;;;;;;;14.08;84.48;101207.75;5084313;28;20036;-89
2023/05/04 02:04:40;;;;;;;15.88;8.43;;;;;;;14.06;83.56;101180.00;5082201;28;20024;-89
2023/05/04 02:07:06;;;;;;;21.10;8.60;;;;;;;14.04;83.13;101203.59;5091860;28;20082;-89
2023/05/04 02:09:31;;;;;;;14.15;7.20;;;;;;;14.04;83.67;101197.31;5093828;28;20024;-90
2023/05/04 02:11:57;;;;;;;28.40;9.13;;;;;;;14.01;84.23;101198.44;5073546;28;20074;-91
2023/05/04 02:14:22;;;;;;;23.65;9.05;;;;;;;13.88;84.48;101164.50;5071721;28;20475;-90
2023/05/04 02:16:48;;;;;;;14.27;7.95;;;;;;;13.91;84.67;101180.47;5071025;28;20432;-89
2023/05/04 02:19:13;;;;;;;15.43;8.52;;;;;;;13.83;85.00;101181.13;5070618;28;20028;-89
2023/05/04 02:21:41;;;;;;;21.90;8.57;;;;;;;13.80;84.65;101167.88;5070604;28;20522;-88
2023/05/04 02:24:06;;;;;;;12.45;7.45;;;;;;;13.91;83.84;101175.06;5088188;28;20659;-89
2023/05/04 02:26:31;;;;;;;19.63;9.52;;;;;;;13.97;83.12;101169.97;5089143;28;20046;-89
2023/05/04 02:28:57;;;;;;;22.23;8.88;;;;;;;14.05;82.49;101194.50;5088684;28;20036;-89
2023/05/04 02:31:23;;;;;;;13.02;8.25;;;;;;;13.98;82.36;101205.97;5072502;28;20024;-88
2023/05/04 02:33:50;;;;;;;14.20;8.30;;;;;;;13.87;83.42;101188.00;5089099;28;20561;-89
2023/05/04 02:36:15;;;;;;;21.30;9.18;;;;;;;13.83;84.11;101183.81;5087162;28;20075;-89
2023/05/04 02:38:40;;;;;;;12.68;7.20;;;;;;;13.87;82.85;101196.09;5087507;28;20059;-88
2023/05/04 02:41:06;;;;;;;16.38;7.93;;;;;;;13.96;82.55;101203.41;5091124;28;20036;-88
2023/05/04 02:43:31;;;;;;;17.75;8.73;;;;;;;14.00;82.51;101209.41;5076514;28;20027;-88
2023/05/04 02:45:57;;;;;;;13.13;8.20;;;;;;;13.95;82.59;101214.34;5094702;28;20481;-88
2023/05/04 02:48:23;;;;;;;12.65;8.10;;;;;;;14.01;82.41;101211.97;5080064;28;20040;-89
2023/05/04 02:50:49;;;;;;;19.58;8.70;;;;;;;14.00;82.86;101240.03;5098585;28;20253;-88
2023/05/04 02:53:14;;;;;;;18.40;9.18;;;;;;;13.94;83.18;101240.53;5114775;28;20032;-89
2023/05/04 02:55:40;;;;;;;20.52;9.80;;;;;;;14.05;83.46;101245.03;5111480;28;20047;-88
2023/05/04 02:58:06;;;;;;;18.48;10.02;;;;;;;14.07;83.67;101245.75;5095110;28;20035;-87
2023/05/04 03:00:31;;;;;;;19.10;10.63;;;;;;;14.13;83.94;101245.22;5090994;28;20036;-88
2023/05/04 03:02:57;;;;;;;19.23;11.48;;;;;;;14.10;84.27;101259.00;5073746;28;20505;-89
2023/05/04 03:05:22;;;;;;;19.30;10.40;;;;;;;14.18;84.78;101276.31;5073105;28;20038;-88
2023/05/04 03:07:49;;;;;;;23.35;10.98;;;;;;;14.16;85.23;101259.34;5072416;28;20067;-88
2023/05/04 03:10:14;;;;;;;18.75;11.32;;;;;;;14.11;85.25;101260.72;5073617;28;20556;-89
2023/05/04 03:12:40;;;;;;;20.58;11.18;;;;;;;14.17;85.63;101280.00;5073402;28;20016;-87
2023/05/04 03:15:06;;;;;;;19.67;10.25;;;;;;;14.29;85.49;101293.47;5072972;28;20118;-88
2023/05/04 03:17:32;;;;;;;17.65;9.88;;;;;;;14.27;85.09;101293.59;5073071;28;20020;-89
2023/05/04 03:19:57;;;;;;;21.20;10.25;;;;;;;14.22;85.15;101281.47;5073080;28;20521;-88
2023/05/04 03:22:22;;;;;;;21.45;11.30;;;;;;;14.32;85.03;101295.91;5074566;28;20048;-88
2023/05/04 03:24:48;;;;;;;18.17;10.95;;;;;;;14.37;85.16;101302.66;5075952;28;20025;-88
2023/05/04 03:27:13;;;;;;;20.95;10.43;;;;;;;14.33;85.03;101289.53;5074881;28;20021;-87
2023/05/04 03:29:39;;;;;;;22.13;10.27;;;;;;;14.26;84.84;101309.94;5074057;28;20040;-88
2023/05/04 03:32:05;;;;;;;20.58;11.15;;;;;;;14.24;84.30;101309.25;5074107;28;20054;-87
2023/05/04 03:34:31;;;;;;;18.88;9.82;;;;;;;14.22;84.42;101322.06;5074335;28;20044;-89
2023/05/04 03:36:56;;;;;;;18.50;10.52;;;;;;;14.23;84.23;101335.44;5076027;28;20049;-88
2023/05/04 03:39:22;;;;;;;20.50;10.57;;;;;;;14.17;84.41;101317.88;5075409;28;20027;-85
2023/05/04 03:41:48;;;;;;;22.27;10.35;;;;;;;14.16;84.38;101278.28;5078139;28;20039;-88
2023/05/04 03:44:13;;;;;;;22.17;10.75;;;;;;;14.35;84.21;101291.13;5076263;28;20021;-87
2023/05/04 03:46:39;;;;;;;30.63;11.70;;;;;;;14.28;84.32;101292.59;5076761;28;20097;-88
2023/05/04 03:49:04;;;;;;;21.27;12.35;;;;;;;14.23;84.54;101304.81;5088001;28;20025;-87
2023/05/04 03:51:30;;;;;;;21.13;11.85;;;;;;;14.31;85.12;101323.97;5095569;28;20080;-87
2023/05/04 03:53:55;;;;;;;24.02;12.55;;;;;;;14.16;85.20;101310.75;5085164;28;20028;-88
2023/05/04 03:56:21;;;;;;;19.25;11.85;;;;;;;14.19;84.96;101315.88;5075237;28;20471;-88
2023/05/04 03:58:46;;;;;;;26.30;13.27;;;;;;;14.30;85.13;101333.94;5076966;28;20032;-88
2023/05/04 04:01:12;;;;;;;20.17;12.35;;;;;;;14.15;85.26;101327.13;5080154;28;20039;-88
2023/05/04 04:03:37;;;;;;;21.88;11.98;;;;;;;14.27;85.68;101355.84;5084946;28;20099;-89
2023/05/04 04:06:06;;;;;;;19.60;12.82;;;;;;;14.33;86.07;101362.59;5083464;28;20088;-87
2023/05/04 04:08:32;;;;;;;23.33;12.80;;;;;;;14.36;85.62;101346.09;5075548;28;20028;-87
2023/05/04 04:10:57;;;;;;;20.63;12.25;;;;;;;14.45;85.21;101348.88;5075202;28;20123;-89
2023/05/04 04:13:23;;;;;;;27.65;12.75;;;;;;;14.42;84.34;101337.47;5073235;28;20028;-89
2023/05/04 04:15:49;;;;;;;27.42;12.25;;;;;;;14.45;84.50;101337.19;5073431;28;20032;-88
2023/05/04 04:18:15;;;;;;;27.40;13.32;;;;;;;14.51;84.87;101352.91;5072510;28;20411;-88
2023/05/04 04:20:40;;;;;;;29.05;13.50;;;;;;;14.45;85.14;101334.47;5071402;28;20024;-88
2023/05/04 04:23:06;;;;;;;20.77;12.20;;;;;;;14.54;84.82;101330.97;5072052;28;20028;-89
2023/05/04 04:25:32;;;;;;;21.55;13.48;;;;;;;14.59;84.47;101323.31;5070158;28;20402;-85
2023/05/04 04:27:57;;;;;;;26.80;13.02;;;;;;;14.52;84.86;101338.38;5073146;28;20043;-85
2023/05/04 04:30:23;;;;;;;25.10;12.85;;;;;;;14.49;85.42;101338.66;5070907;28;20063;-84
2023/05/04 04:32:48;;;;;;;29.02;14.13;;;;;;;14.46;85.45;101328.09;5051811;28;20041;-83
2023/05/04 04:35:14;;;;;;;28.67;13.70;;;;;;;14.60;85.24;101346.69;5070940;28;20055;-88
2023/05/04 04:37:40;;;;;;;32.55;12.77;;;;;;;14.57;85.11;101337.00;5071056;28;20052;-86
2023/05/04 04:40:06;;;;;;;23.55;12.70;;;;;;;14.61;84.71;101340.28;5072042;28;20166;-81
2023/05/04 04:42:32;;;;;;;33.03;14.93;;;;;;;14.72;84.59;101364.56;5072675;28;20042;-84
2023/05/04 04:44:58;;;;;;;25.33;13.13;;;;;;;14.72;84.41;101378.13;5073980;28;20025;-83
2023/05/04 04:47:24;;;;;;;28.52;14.05;;;;;;;14.72;84.50;101394.38;5083541;28;20050;-82
2023/05/04 04:49:49;;;;;;;32.97;14.88;;;;;;;14.71;84.90;101381.81;5081443;28;20390;-81
2023/05/04 04:52:16;;;;;;;28.88;15.32;;;;;;;14.68;84.93;101352.28;5075369;28;20050;-78
2023/05/04 04:54:44;;;;;;;23.17;13.85;;;;;;;14.69;85.05;101335.06;5078620;28;20048;-83
2023/05/04 04:57:10;;;;;;;31.70;20.73;;;;;;;14.84;84.05;101363.50;5083146;28;20039;-86
2023/05/04 04:59:36;;;;;;;33.67;14.90;;;;;;;14.87;83.79;101352.41;5071833;28;20048;-89
2023/05/04 05:02:02;;;;;;;40.03;13.90;;;;;;;14.82;83.38;101338.41;5053443;28;20033;-82
2023/05/04 05:04:28;;;;;;;26.63;13.23;;;;;;;14.88;83.56;101334.31;5051141;28;20430;-86
2023/05/04 05:06:54;;;;;;;29.45;13.90;;;;;;;15.02;83.56;101332.09;5049906;28;20025;-84
2023/05/04 05:09:19;;;;;;;34.22;13.23;;;;;;;15.12;83.20;101330.28;5049886;28;20408;-81
2023/05/04 05:11:44;;;;;;;33.40;14.68;;;;;;;15.19;82.97;101344.16;5050199;28;20071;-81
2023/05/04 05:14:11;;;;;;;29.92;13.80;;;;;;;15.19;83.30;101334.16;5050652;28;20021;-85
2023/05/04 05:16:36;;;;;;;35.65;14.90;;;;;;;15.29;82.65;101323.34;5082440;28;20427;-82
2023/05/04 05:19:02;;;;;;;26.23;14.68;;;;;;;15.32;82.69;101322.22;5071239;28;20021;-85
2023/05/04 05:21:28;;;;;;;25.10;13.05;;;;;;;15.29;83.02;101328.75;5068987;28;20036;-85
2023/05/04 05:23:53;;;;;;;33.20;13.55;;;;;;;15.13;83.27;101296.78;5071116;28;20108;-82
2023/05/04 05:26:19;;;;;;;28.52;13.88;;;;;;;15.30;83.54;101313.34;5074274;28;20025;-84
2023/05/04 05:28:45;;;;;;;24.67;13.07;;;;;;;15.15;83.60;101307.47;5073146;28;20024;-86
2023/05/04 05:31:10;;;;;;;24.25;11.52;;;;;;;15.12;83.95;101295.06;5070847;28;20035;-83
2023/05/04 05:33:36;;;;;;;36.50;14.30;;;;;;;14.92;83.76;101289.72;5071463;28;20020;-78
2023/05/04 05:36:02;;;;;;;41.67;16.70;;;;;;;14.75;85.46;101293.91;5072038;28;20092;-83
2023/05/04 05:38:27;;;;;;;33.03;15.30;;;;;;;14.49;87.50;101273.69;5073474;28;20028;-82
2023/05/04 05:40:53;;;;;;;31.13;14.43;;;;;;;14.25;89.04;101294.72;5070626;28;20059;-81
2023/05/04 05:43:20;;;;;;;29.52;13.50;;;;;;;14.01;91.72;101295.81;5081825;28;20044;-83
2023/05/04 05:45:45;;;;;;;31.45;14.27;;;;;;;13.76;93.76;101307.00;5077751;28;20132;-78
2023/05/04 05:48:11;;;;;;;30.90;14.68;;;;;;;13.49;95.18;101301.19;5074097;28;20020;-79
2023/05/04 05:50:36;;;;;;;32.70;14.88;;;;;;;13.38;97.09;101293.97;5077113;28;20032;-81
2023/05/04 05:53:02;;;;;;;43.30;17.08;;;;;;;13.38;98.96;101303.94;5074636;28;20028;-82
2023/05/04 05:55:27;;;;;;;27.70;14.55;;;;;;;13.20;100.00;101303.59;5070492;28;20460;-81
2023/05/04 05:57:53;;;;;;;31.17;15.15;;;;;;;13.00;100.00;101294.38;5070319;28;20032;-82
2023/05/04 06:00:18;;;;;;;38.42;18.08;;;;;;;13.12;100.00;101289.00;5069806;28;20042;-84
2023/05/04 06:02:44;;;;;;;42.72;16.23;;;;;;;13.25;100.00;101295.09;5052797;28;20037;-82
2023/05/04 06:05:10;;;;;;;36.70;14.93;;;;;;;13.20;100.00;101267.63;5050627;28;20111;-80
2023/05/04 06:07:35;;;;;;;30.70;14.43;;;;;;;13.26;100.00;101276.09;5049004;28;20033;-82
2023/05/04 06:10:01;;;;;;;35.05;14.85;;;;;;;13.35;100.00;101290.66;5048942;28;20028;-81
2023/05/04 06:12:27;;;;;;;32.75;16.88;;;;;;;13.43;100.00;101282.78;5048776;28;20032;-80
2023/05/04 06:14:55;;;;;;;33.65;13.95;;;;;;;13.54;100.00;101296.28;5051550;28;20091;-81
2023/05/04 06:17:21;;;;;;;40.95;14.32;;;;;;;13.47;100.00;101311.28;5069004;28;20024;-80
2023/05/04 06:19:46;;;;;;;38.72;16.38;;;;;;;13.47;100.00;101313.97;5067989;28;20024;-82
2023/05/04 06:22:12;;;;;;;32.00;14.32;;;;;;;13.44;100.00;101298.00;5068505;28;20123;-81
2023/05/04 06:24:38;;;;;;;37.80;16.02;;;;;;;13.45;100.00;101295.19;5068829;28;20089;-82
2023/05/04 06:27:03;;;;;;;29.63;16.25;;;;;;;13.41;100.00;101282.06;5069095;28;20447;-82
2023/05/04 06:29:29;;;;;;;29.98;15.13;;;;;;;13.43;100.00;101263.84;5069685;28;20099;-79
2023/05/04 06:31:55;;;;;;;36.22;19.90;;;;;;;13.42;100.00;101263.00;5069511;28;20086;-82
2023/05/04 06:34:20;;;;;;;41.13;19.83;;;;;;;13.50;100.00;101256.97;5071149;28;20403;-80
2023/05/04 06:36:47;;;;;;;37.75;19.17;;;;;;;13.41;100.00;101242.38;5070465;28;20052;-83
2023/05/04 06:39:13;;;;;;;23.00;13.25;;;;;;;13.38;100.00;101248.03;5077227;28;20166;-85
2023/05/04 06:41:39;;;;;;;29.45;13.95;;;;;;;13.26;100.00;101227.47;5082718;28;20028;-83
2023/05/04 06:44:05;;;;;;;38.10;15.20;;;;;;;13.46;100.00;101255.50;5076498;28;20024;-81
2023/05/04 06:46:34;;;;;;;33.63;14.98;;;;;;;13.30;100.00;101249.69;5068935;28;20025;-86
2023/05/04 06:48:59;;;;;;;32.53;13.23;;;;;;;13.26;100.00;101248.19;5068009;28;20029;-83
2023/05/04 06:51:25;;;;;;;40.13;16.20;;;;;;;13.35;100.00;101247.44;5068295;28;20020;-85
2023/05/04 06:53:50;;;;;;;35.15;14.15;;;;;;;13.33;100.00;101217.84;5068238;28;20415;-82
2023/05/04 06:56:16;;;;;;;24.70;12.00;;;;;;;13.35;100.00;101237.50;5068386;28;20021;-81
2023/05/04 06:58:41;;;;;;;29.63;13.85;;;;;;;13.14;100.00;101222.22;5068352;28;20032;-81
2023/05/04 07:01:10;;;;;;;26.55;12.35;;;;;;;13.18;100.00;101219.09;5067941;28;20028;-82
2023/05/04 07:03:36;;;;;;;21.60;11.82;;;;;;;13.30;100.00;101244.28;5070712;28;20059;-82
2023/05/04 07:06:02;;;;;;;31.35;12.05;;;;;;;13.29;100.00;101242.53;5067558;28;20476;-83
2023/05/04 07:08:28;;;;;;;29.98;11.90;;;;;;;13.15;100.00;101219.34;5067987;28;20139;-82
2023/05/04 07:10:53;;;;;;;35.22;11.48;;;;;;;13.31;100.00;101235.16;5068299;28;20029;-79
2023/05/04 07:13:19;;;;;;;29.63;10.38;;;;;;;13.31;100.00;101214.41;5068824;28;20119;-83
2023/05/04 07:15:45;;;;;;;32.00;12.32;;;;;;;13.44;100.00;101195.31;5068088;28;20021;-79
2023/05/04 07:18:10;;;;;;;24.25;10.13;;;;;;;13.51;100.00;101210.06;5068621;28;20024;-79
2023/05/04 07:20:35;;;;;;;28.40;9.48;;;;;;;13.58;100.00;101203.13;5067813;28;20017;-79
2023/05/04 07:23:01;;;;;;;28.98;9.35;;;;;;;13.54;100.00;101198.97;5069002;28;20024;-78
2023/05/04 07:25:27;;;;;;;23.38;8.90;;;;;;;13.64;100.00;101189.09;5067259;28;20021;-83
2023/05/04 07:27:53;;;;;;;28.73;9.35;;;;;;;13.81;100.00;101183.09;5071490;28;20033;-81
2023/05/04 07:30:19;;;;;;;21.27;9.55;;;;;;;13.94;100.00;101175.63;5071042;28;20017;-80
2023/05/04 07:32:45;;;;;;;25.05;10.18;;;;;;;14.14;100.00;101174.75;5072302;28;20021;-81
2023/05/04 07:35:11;;;;;;;38.28;9.52;;;;;;;14.46;100.00;101171.09;5074897;28;20025;-79
2023/05/04 07:37:36;;;;;;;22.48;8.98;;;;;;;14.87;100.00;101170.94;5088183;28;20127;-83
2023/05/04 07:40:06;;;;;;;19.58;6.60;;;;;;;14.98;100.00;101143.72;5074505;28;20029;-80
2023/05/04 07:42:32;;;;;;;21.08;8.15;;;;;;;15.34;100.00;101176.56;5071558;28;20031;-79
2023/05/04 07:44:57;;;;;;;18.73;7.97;;;;;;;15.49;100.00;101170.63;5071337;28;20028;-79
2023/05/04 07:47:23;;;;;;;14.52;6.70;;;;;;;15.66;99.03;101147.31;5070960;28;20290;-78
2023/05/04 07:49:49;;;;;;;13.25;5.45;;;;;;;15.69;94.00;101155.16;5071003;28;20073;-81
2023/05/04 07:52:14;;;;;;;13.00;6.05;;;;;;;15.88;93.03;101163.28;5071593;28;20024;-86
2023/05/04 07:54:40;;;;;;;19.15;6.45;;;;;;;15.81;91.54;101140.44;5070608;28;20028;-78
2023/05/04 07:57:06;;;;;;;20.00;7.07;;;;;;;16.09;91.60;101153.09;5071064;28;20039;-80
2023/05/04 07:59:31;;;;;;;22.38;10.70;;;;;;;16.25;91.18;101156.03;5070232;28;20171;-80
2023/05/04 08:01:57;;;;;;;14.32;7.00;;;;;;;16.50;91.97;101159.09;5071024;28;20032;-77
2023/05/04 08:04:22;;;;;;;18.77;7.25;;;;;;;16.62;91.15;101163.34;5071329;28;20025;-82
2023/05/04 08:06:48;;;;;;;12.05;6.15;;;;;;;16.54;88.44;101150.53;5070662;28;20032;-79
2023/05/04 08:09:17;;;;;;;14.95;6.35;;;;;;;16.72;87.55;101147.88;5070840;28;20036;-81
2023/05/04 08:11:44;;;;;;;22.92;6.70;;;;;;;16.88;87.24;101148.03;5070964;28;20032;-79
2023/05/04 08:14:10;;;;;;;16.27;6.30;;;;;;;17.10;88.03;101144.03;5071147;28;20103;-78
2023/05/04 08:16:36;;;;;;;10.00;5.93;;;;;;;17.35;89.56;101137.81;5071491;28;20103;-79
2023/05/04 08:19:01;;;;;;;12.15;5.55;;;;;;;17.38;89.66;101127.50;5071444;28;20032;-79
2023/05/04 08:21:27;;;;;;;17.08;6.25;;;;;;;17.52;88.40;101136.94;5070526;28;20741;-78
2023/05/04 08:23:53;;;;;;;16.15;5.97;;;;;;;17.70;88.53;101145.13;5071294;28;20447;-80
2023/05/04 08:26:19;;;;;;;12.65;5.32;;;;;;;17.68;86.16;101125.38;5072271;28;20483;-79
2023/05/04 08:28:45;;;;;;;25.17;8.05;;;;;;;17.77;84.15;101141.59;5072889;28;20032;-79
2023/05/04 08:31:13;;;;;;;18.30;5.32;;;;;;;17.60;81.97;101122.59;5071942;28;20029;-78
2023/05/04 08:33:38;;;;;;;14.77;6.38;;;;;;;17.67;84.71;101129.13;5072763;28;20025;-82
2023/05/04 08:36:05;;;;;;;17.25;5.95;;;;;;;17.66;81.65;101132.84;5072367;28;20055;-81
2023/05/04 08:38:31;;;;;;;20.85;5.00;;;;;;;17.58;81.28;101119.19;5069832;28;20070;-80
2023/05/04 08:41:00;;;;;;;19.60;6.63;;;;;;;17.61;81.52;101136.06;5070393;28;20032;-78
2023/05/04 08:43:27;;;;;;;12.95;4.97;;;;;;;17.63;81.65;101123.13;5070222;28;20503;-81
2023/05/04 08:45:52;;;;;;;19.00;5.95;;;;;;;17.64;82.20;101124.00;5070085;28;20065;-81
2023/05/04 08:48:18;;;;;;;17.35;5.38;;;;;;;17.71;82.55;101120.47;5068597;28;20025;-80
2023/05/04 08:50:44;;;;;;;15.30;5.72;;;;;;;17.65;82.28;101109.38;5070178;28;20052;-80
2023/05/04 08:53:14;;;;;;;19.75;5.82;;;;;;;17.73;82.38;101123.06;5069952;28;20024;-83
2023/05/04 08:55:42;;;;;;;28.05;5.80;;;;;;;17.77;81.16;101118.97;5069925;28;20112;-80
2023/05/04 08:58:10;;;;;;;39.15;5.82;;;;;;;17.89;80.62;101113.13;5069713;28;20111;-80
2023/05/04 09:00:37;;;;;;;62.28;9.05;;;;;;;18.01;81.11;101118.31;5066600;28;20059;-78
2023/05/04 09:03:04;;;;;;;16.08;6.25;;;;;;;17.91;75.80;101104.81;5069881;28;20036;-81
2023/05/04 09:05:31;;;;;;;18.38;4.88;;;;;;;18.02;74.81;101120.00;5069262;28;20032;-79
2023/05/04 09:07:57;;;;;;;46.72;8.57;;;;;;;18.00;76.70;101101.13;5069383;28;20067;-79
2023/05/04 09:10:24;;;;;;;56.38;8.20;;;;;;;18.15;77.64;101113.13;5069799;28;20040;-81
2023/05/04 09:12:52;;;;;;;27.58;7.75;;;;;;;18.08;77.87;101090.25;5069183;28;20442;-79
2023/05/04 09:15:19;;;;;;;25.98;6.35;;;;;;;18.12;77.42;101098.97;5069285;28;20132;-79
2023/05/04 09:18:02;;;;;;;34.85;6.63;;;;;;;18.10;77.88;101099.16;5070320;28;20399;-78
2023/05/04 09:20:28;;;;;;;;;;;;;;;18.12;77.83;101102.56;5069854;28;20471;-78
2023/05/04 09:23:06;;;;;;;48.28;8.65;;;;;;;18.11;77.64;101099.97;5070433;28;19982;-79
2023/05/04 09:25:33;;;;;;;35.58;7.57;;;;;;;18.17;78.64;101105.63;5069877;28;20488;-78
2023/05/04 09:27:58;;;;;;;42.65;8.43;;;;;;;18.18;77.08;101099.19;5069633;28;20039;-78
2023/05/04 09:30:24;;;;;;;24.35;6.35;;;;;;;17.97;76.35;101087.84;5071849;28;20024;-78
2023/05/04 09:32:49;;;;;;;55.15;8.85;;;;;;;17.94;77.87;101082.72;5078420;28;20036;-80
2023/05/04 09:35:28;;;;;;;44.22;8.35;;;;;;;18.08;77.82;101092.13;5070276;28;20475;-77
2023/05/04 09:37:55;;;;;;;64.53;10.82;;;;;;;18.20;78.85;101094.41;5069056;28;20431;-80
2023/05/04 09:40:29;;;;;;;34.67;8.00;;;;;;;18.13;76.75;101093.38;5068666;28;20050;-78
2023/05/04 09:42:56;;;;;;;38.92;8.48;;;;;;;18.10;76.68;101082.81;5067983;28;20033;-79
2023/05/04 09:45:22;;;;;;;50.95;9.38;;;;;;;18.11;76.83;101095.38;5069106;28;20024;-78
2023/05/04 09:47:49;;;;;;;61.17;9.68;;;;;;;18.02;76.96;101092.78;5069210;28;20032;-78
2023/05/04 09:50:16;;;;;;;36.35;8.32;;;;;;;17.84;75.95;101111.91;5069254;28;20059;-79
2023/05/04 09:52:44;;;;;;;28.85;7.65;;;;;;;17.45;76.73;101102.38;5069175;28;20036;-78
2023/05/04 09:55:14;;;;;;;46.72;8.32;;;;;;;17.35;77.12;101097.91;5069811;28;20028;-80
2023/05/04 09:57:41;;;;;;;42.97;9.98;;;;;;;17.07;79.51;101109.84;5066840;28;20395;-80
2023/05/04 10:00:09;;;;;;;59.70;9.70;;;;;;;16.98;80.59;101112.63;5066118;28;20059;-81
2023/05/04 10:02:36;;;;;;;29.92;7.07;;;;;;;16.82;80.09;101110.59;5067496;28;20040;-84
2023/05/04 10:05:02;;;;;;;33.40;7.22;;;;;;;16.88;81.32;101115.41;5068384;28;20110;-80
2023/05/04 10:07:30;;;;;;;35.20;9.93;;;;;;;16.85;81.12;101110.28;5068600;28;20547;-82
2023/05/04 10:09:58;;;;;;;63.47;9.95;;;;;;;16.97;82.51;101111.78;5068557;28;20115;-83
2023/05/04 10:12:24;;;;;;;52.17;9.90;;;;;;;16.84;81.58;101114.03;5070398;28;20049;-79
2023/05/04 10:14:49;;;;;;;25.27;8.80;;;;;;;16.51;81.00;101122.78;5082176;28;20025;-82
2023/05/04 10:17:39;;;;;;;23.00;7.72;;;;;;;16.50;83.13;101116.50;5085751;28;20514;-75
2023/05/04 10:20:26;;;;;;;27.20;7.13;;;;;;;16.59;83.17;101118.34;5080726;28;20032;-82
2023/05/04 10:23:26;;;;;;;36.53;8.73;;;;;;;16.57;82.83;101103.22;5071103;28;20060;-81
2023/05/04 10:26:06;;;;;;;27.42;7.25;;;;;;;16.62;81.49;101111.75;5071720;28;20458;-81
2023/05/04 10:29:15;;;;;;;40.20;8.77;;;;;;;16.46;82.72;101116.94;5075272;28;20037;-80
2023/05/04 10:31:42;;;;;;;32.42;8.13;;;;;;;16.33;82.63;101099.13;5071590;28;20025;-78
2023/05/04 10:34:09;;;;;;;153.13;24.02;;;;;;;16.60;82.87;101113.75;5055109;28;20029;-83
2023/05/04 10:36:38;;;;;;;37.05;9.45;;;;;;;16.38;81.25;101112.28;5048549;28;20049;-81
2023/05/04 10:39:16;;;;;;;34.53;9.60;;;;;;;16.40;82.91;101120.25;5049765;28;20040;-84
2023/05/04 10:41:42;;;;;;;27.48;8.05;;;;;;;16.44;83.38;101111.66;5050313;28;20028;-83
2023/05/04 10:44:08;;;;;;;53.50;11.63;;;;;;;16.57;83.75;101100.50;5050722;28;20044;-82
2023/05/04 10:46:34;;;;;;;41.33;10.55;;;;;;;16.69;82.68;101116.44;5050748;28;20469;-81
2023/05/04 10:48:59;;;;;;;32.58;8.20;;;;;;;16.58;80.91;101118.47;5050494;28;20025;-83
2023/05/04 10:51:25;;;;;;;22.77;7.93;;;;;;;16.58;81.13;101121.19;5049850;28;20049;-82
2023/05/04 10:53:51;;;;;;;37.50;8.13;;;;;;;16.48;81.01;101098.66;5050096;28;20025;-85
2023/05/04 10:56:21;;;;;;;38.50;9.57;;;;;;;16.60;81.46;101106.47;5049927;28;20025;-81
2023/05/04 10:58:48;;;;;;;56.40;12.40;;;;;;;16.75;81.92;101131.25;5049318;28;20021;-81
2023/05/04 11:01:13;;;;;;;51.25;11.75;;;;;;;16.87;81.04;101132.75;5049985;28;20037;-79
2023/05/04 11:03:42;;;;;;;34.88;10.68;;;;;;;16.80;79.51;101113.50;5053060;28;20039;-83
2023/05/04 11:06:22;;;;;;;24.17;8.18;;;;;;;16.75;79.40;101120.41;5053109;28;20040;-81
2023/05/04 11:08:58;;;;;;;49.05;11.13;;;;;;;16.78;79.85;101123.66;5052945;28;20396;-81
2023/05/04 11:11:23;;;;;;;33.90;10.20;;;;;;;16.94;79.90;101120.25;5053737;28;20059;-83